createdAt,value
2023-01-25T00:00:44.759Z,94.90
2023-01-25T00:01:44.785Z,94.79
2023-01-25T00:02:47.725Z,94.37
2023-01-25T00:03:45.213Z,94.17
2023-01-25T00:04:47.782Z,93.96
2023-01-25T00:05:44.718Z,94.58
2023-01-25T00:06:44.693Z,94.27
2023-01-25T00:07:44.683Z,94.37
2023-01-25T00:08:44.683Z,94.37
2023-01-25T00:09:44.658Z,94.69
2023-01-25T00:10:44.717Z,94.58
2023-01-25T00:11:51.217Z,94.37
2023-01-25T00:12:47.195Z,94.37
2023-01-25T00:13:45.205Z,94.69
2023-01-25T00:14:44.590Z,94.37
2023-01-25T00:15:44.613Z,94.58
2023-01-25T00:16:44.663Z,94.06
2023-01-25T00:17:44.583Z,94.17
2023-01-25T00:18:45.202Z,94.90
2023-01-25T00:19:44.545Z,94.79
2023-01-25T00:20:44.542Z,94.17
2023-01-25T00:21:45.193Z,93.96
2023-01-25T00:22:44.729Z,94.17
2023-01-25T00:23:44.576Z,94.37
2023-01-25T00:24:45.193Z,93.75
2023-01-25T00:25:44.483Z,94.17
2023-01-25T00:26:44.476Z,93.85
2023-01-25T00:27:44.497Z,94.00
2023-01-25T00:28:59.194Z,93.79
2023-01-25T00:29:44.444Z,94.06
2023-01-25T00:30:45.495Z,94.27
2023-01-25T00:31:44.517Z,94.31
2023-01-25T00:32:44.592Z,94.10
2023-01-25T00:33:44.408Z,94.42
2023-01-25T00:34:44.394Z,94.17
2023-01-25T00:35:45.195Z,94.48
2023-01-25T00:36:44.368Z,94.58
2023-01-25T00:37:44.377Z,94.63
2023-01-25T00:38:44.355Z,94.52
2023-01-25T00:39:44.337Z,94.21
2023-01-25T00:40:44.332Z,94.42
2023-01-25T00:41:44.316Z,94.48
2023-01-25T00:42:44.348Z,94.73
2023-01-25T00:43:44.332Z,94.73
2023-01-25T00:44:44.274Z,94.73
2023-01-25T00:45:44.323Z,94.48
2023-01-25T00:46:44.268Z,93.79
2023-01-25T00:47:44.726Z,92.96
2023-01-25T00:48:44.235Z,92.96
2023-01-25T00:49:44.230Z,93.16
2023-01-25T00:50:44.221Z,93.37
2023-01-25T00:51:44.218Z,93.73
2023-01-25T00:53:05.196Z,94.25
2023-01-25T00:53:45.209Z,94.21
2023-01-25T00:54:44.165Z,94.42
2023-01-25T00:55:44.158Z,95.04
2023-01-25T00:56:44.153Z,94.84
2023-01-25T00:57:44.188Z,94.42
2023-01-25T00:58:44.127Z,94.21
2023-01-25T00:59:44.127Z,94.63
2023-01-25T01:00:44.703Z,94.46
2023-01-25T01:01:44.094Z,94.31
2023-01-25T01:02:44.138Z,94.52
2023-01-25T01:03:44.073Z,94.52
2023-01-25T01:04:45.195Z,94.31
2023-01-25T01:05:58.712Z,94.42
2023-01-25T01:06:44.039Z,94.42
2023-01-25T01:07:44.222Z,94.42
2023-01-25T01:08:44.020Z,94.63
2023-01-25T01:09:44.024Z,94.21
2023-01-25T01:10:43.992Z,94.21
2023-01-25T01:11:44.010Z,94.52
2023-01-25T01:12:43.983Z,94.42
2023-01-25T01:13:43.966Z,94.42
2023-01-25T01:14:43.964Z,94.63
2023-01-25T01:15:43.954Z,94.63
2023-01-25T01:16:44.048Z,94.52
2023-01-25T01:17:43.973Z,94.31
2023-01-25T01:18:43.919Z,94.21
2023-01-25T01:19:43.909Z,94.31
2023-01-25T01:20:50.691Z,94.10
2023-01-25T01:21:44.767Z,94.10
2023-01-25T01:22:43.867Z,94.42
2023-01-25T01:23:43.905Z,94.46
2023-01-25T01:24:43.849Z,94.42
2023-01-25T01:25:43.846Z,93.06
2023-01-25T01:26:43.831Z,93.73
2023-01-25T01:27:43.837Z,93.37
2023-01-25T01:28:44.696Z,92.85
2023-01-25T01:29:43.784Z,93.27
2023-01-25T01:30:43.800Z,93.52
2023-01-25T01:31:44.004Z,93.73
2023-01-25T01:32:43.996Z,93.59
2023-01-25T01:33:43.772Z,94.21
2023-01-25T01:34:43.736Z,94.31
2023-01-25T01:35:46.741Z,94.88
2023-01-25T01:36:43.729Z,94.94
2023-01-25T01:37:44.730Z,94.94
2023-01-25T01:38:43.688Z,94.52
2023-01-25T01:39:43.698Z,94.94
2023-01-25T01:40:44.187Z,94.63
2023-01-25T01:41:43.650Z,94.73
2023-01-25T01:42:43.689Z,94.52
2023-01-25T01:43:43.633Z,94.94
2023-01-25T01:44:43.665Z,94.63
2023-01-25T01:45:44.206Z,94.63
2023-01-25T01:46:43.630Z,94.63
2023-01-25T01:47:43.614Z,95.36
2023-01-25T01:48:43.588Z,95.15
2023-01-25T01:49:43.564Z,95.15
2023-01-25T01:50:43.612Z,94.84
2023-01-25T01:51:43.547Z,95.15
2023-01-25T01:52:43.559Z,94.84
2023-01-25T01:53:43.534Z,95.15
2023-01-25T01:54:43.539Z,94.63
2023-01-25T01:55:43.528Z,94.94
2023-01-25T01:56:43.518Z,94.84
2023-01-25T01:57:43.485Z,94.84
2023-01-25T01:58:43.482Z,94.94
2023-01-25T01:59:43.466Z,94.63
2023-01-25T02:00:43.461Z,95.36
2023-01-25T02:01:43.577Z,95.36
2023-01-25T02:02:43.576Z,95.25
2023-01-25T02:03:43.441Z,95.56
2023-01-25T02:04:43.413Z,94.84
2023-01-25T02:05:43.403Z,94.63
2023-01-25T02:06:58.192Z,95.04
2023-01-25T02:07:43.393Z,94.84
2023-01-25T02:08:43.376Z,94.63
2023-01-25T02:09:43.368Z,94.63
2023-01-25T02:10:44.184Z,94.63
2023-01-25T02:11:43.341Z,94.63
2023-01-25T02:12:43.333Z,94.63
2023-01-25T02:13:43.325Z,94.52
2023-01-25T02:14:43.300Z,95.04
2023-01-25T02:15:43.358Z,95.15
2023-01-25T02:16:43.749Z,94.73
2023-01-25T02:17:43.286Z,94.94
2023-01-25T02:18:43.252Z,94.98
2023-01-25T02:19:43.264Z,94.98
2023-01-25T02:20:43.234Z,94.67
2023-01-25T02:21:43.233Z,94.63
2023-01-25T02:22:43.239Z,95.36
2023-01-25T02:23:43.206Z,95.15
2023-01-25T02:24:43.195Z,95.25
2023-01-25T02:25:43.216Z,95.19
2023-01-25T02:26:43.204Z,95.29
2023-01-25T02:27:43.166Z,95.19
2023-01-25T02:28:43.159Z,94.98
2023-01-25T02:29:43.154Z,94.67
2023-01-25T02:30:43.277Z,95.29
2023-01-25T02:31:43.235Z,94.88
2023-01-25T02:32:43.128Z,95.19
2023-01-25T02:33:43.091Z,94.09
2023-01-25T02:34:44.154Z,94.40
2023-01-25T02:35:43.104Z,95.28
2023-01-25T02:36:43.086Z,95.49
2023-01-25T02:37:43.040Z,96.01
2023-01-25T02:38:43.697Z,96.84
2023-01-25T02:39:43.045Z,96.70
2023-01-25T02:40:43.028Z,97.01
2023-01-25T02:41:43.008Z,97.01
2023-01-25T02:42:43.695Z,97.01
2023-01-25T02:43:45.692Z,96.86
2023-01-25T02:44:42.971Z,96.80
2023-01-25T02:45:42.987Z,96.86
2023-01-25T02:46:45.708Z,96.03
2023-01-25T02:47:42.955Z,95.92
2023-01-25T02:48:42.942Z,96.03
2023-01-25T02:49:42.926Z,96.13
2023-01-25T02:50:42.938Z,96.03
2023-01-25T02:51:42.927Z,96.03
2023-01-25T02:52:42.897Z,96.44
2023-01-25T02:53:42.883Z,96.13
2023-01-25T02:54:42.878Z,96.13
2023-01-25T02:55:42.850Z,96.03
2023-01-25T02:56:42.911Z,95.92
2023-01-25T02:57:42.852Z,95.82
2023-01-25T02:58:42.836Z,96.23
2023-01-25T02:59:42.829Z,96.03
2023-01-25T03:00:42.800Z,96.23
2023-01-25T03:01:43.758Z,96.23
2023-01-25T03:02:42.838Z,96.13
2023-01-25T03:03:43.690Z,96.34
2023-01-25T03:04:42.774Z,96.30
2023-01-25T03:05:42.754Z,95.82
2023-01-25T03:06:42.739Z,96.40
2023-01-25T03:07:42.766Z,95.92
2023-01-25T03:08:42.718Z,95.92
2023-01-25T03:09:46.740Z,95.56
2023-01-25T03:10:42.704Z,95.92
2023-01-25T03:11:42.693Z,95.61
2023-01-25T03:12:42.698Z,94.67
2023-01-25T03:13:42.662Z,94.98
2023-01-25T03:14:42.673Z,94.88
2023-01-25T03:15:42.652Z,94.98
2023-01-25T03:16:43.187Z,95.72
2023-01-25T03:17:42.615Z,95.72
2023-01-25T03:18:42.670Z,95.40
2023-01-25T03:19:42.616Z,95.19
2023-01-25T03:20:42.591Z,95.50
2023-01-25T03:21:43.181Z,95.92
2023-01-25T03:22:42.572Z,95.92
2023-01-25T03:23:43.199Z,96.03
2023-01-25T03:24:42.554Z,96.44
2023-01-25T03:25:42.552Z,95.72
2023-01-25T03:26:42.531Z,96.03
2023-01-25T03:27:42.509Z,95.82
2023-01-25T03:28:42.511Z,95.92
2023-01-25T03:29:43.189Z,95.40
2023-01-25T03:30:43.187Z,95.40
2023-01-25T03:31:42.617Z,95.72
2023-01-25T03:32:42.455Z,96.13
2023-01-25T03:33:45.172Z,96.03
2023-01-25T03:34:42.443Z,96.13
2023-01-25T03:35:42.419Z,95.92
2023-01-25T03:36:42.445Z,95.82
2023-01-25T03:37:42.399Z,95.61
2023-01-25T03:38:42.395Z,95.92
2023-01-25T03:39:42.396Z,96.03
2023-01-25T03:40:42.402Z,95.61
2023-01-25T03:41:42.403Z,95.82
2023-01-25T03:42:42.361Z,96.03
2023-01-25T03:43:42.337Z,95.40
2023-01-25T03:44:42.345Z,95.92
2023-01-25T03:45:42.334Z,95.72
2023-01-25T03:46:42.379Z,95.61
2023-01-25T03:47:42.331Z,96.13
2023-01-25T03:48:45.183Z,96.23
2023-01-25T03:49:42.299Z,95.97
2023-01-25T03:50:49.176Z,96.17
2023-01-25T03:51:43.189Z,96.38
2023-01-25T03:52:42.243Z,96.28
2023-01-25T03:53:42.226Z,96.28
2023-01-25T03:54:42.231Z,95.86
2023-01-25T03:55:42.255Z,96.17
2023-01-25T03:56:42.196Z,95.86
2023-01-25T03:57:42.243Z,96.17
2023-01-25T03:58:42.178Z,95.23
2023-01-25T03:59:42.684Z,95.76
2023-01-25T04:00:42.697Z,95.97
2023-01-25T04:01:48.679Z,96.28
2023-01-25T04:02:42.257Z,96.07
2023-01-25T04:03:42.155Z,95.76
2023-01-25T04:04:42.123Z,95.65
2023-01-25T04:05:42.098Z,95.86
2023-01-25T04:06:42.096Z,96.17
2023-01-25T04:07:42.118Z,96.17
2023-01-25T04:08:42.680Z,95.86
2023-01-25T04:09:42.074Z,96.07
2023-01-25T04:10:42.058Z,96.07
2023-01-25T04:11:42.082Z,95.97
2023-01-25T04:12:42.687Z,95.97
2023-01-25T04:13:42.021Z,96.07
2023-01-25T04:14:44.572Z,96.17
2023-01-25T04:15:42.006Z,95.97
2023-01-25T04:16:42.040Z,96.33
2023-01-25T04:17:41.993Z,96.01
2023-01-25T04:18:41.963Z,96.64
2023-01-25T04:19:41.952Z,96.84
2023-01-25T04:20:42.454Z,96.84
2023-01-25T04:21:41.929Z,97.05
2023-01-25T04:22:41.935Z,96.95
2023-01-25T04:23:41.918Z,96.74
2023-01-25T04:24:41.924Z,96.95
2023-01-25T04:25:41.920Z,97.00
2023-01-25T04:26:41.874Z,96.74
2023-01-25T04:27:41.891Z,97.00
2023-01-25T04:28:41.858Z,97.20
2023-01-25T04:29:42.241Z,97.05
2023-01-25T04:30:41.833Z,97.10
2023-01-25T04:31:42.024Z,97.10
2023-01-25T04:32:42.767Z,97.10
2023-01-25T04:33:41.809Z,97.20
2023-01-25T04:34:42.683Z,97.20
2023-01-25T04:35:42.691Z,97.20
2023-01-25T04:36:44.684Z,97.35
2023-01-25T04:37:41.788Z,97.67
2023-01-25T04:38:41.757Z,98.08
2023-01-25T04:39:41.741Z,98.19
2023-01-25T04:40:41.752Z,97.77
2023-01-25T04:41:44.423Z,98.61
2023-01-25T04:42:41.711Z,97.77
2023-01-25T04:43:41.728Z,97.67
2023-01-25T04:44:41.690Z,97.98
2023-01-25T04:45:42.283Z,98.55
2023-01-25T04:46:41.668Z,98.29
2023-01-25T04:47:41.675Z,98.50
2023-01-25T04:48:42.181Z,98.71
2023-01-25T04:49:41.640Z,98.19
2023-01-25T04:50:41.637Z,98.19
2023-01-25T04:51:41.639Z,98.77
2023-01-25T04:52:44.181Z,97.94
2023-01-25T04:53:42.655Z,98.04
2023-01-25T04:54:41.587Z,98.04
2023-01-25T04:55:41.579Z,97.94
2023-01-25T04:56:41.561Z,98.14
2023-01-25T04:57:41.706Z,98.19
2023-01-25T04:58:41.542Z,98.35
2023-01-25T04:59:41.553Z,98.14
2023-01-25T05:00:42.175Z,97.45
2023-01-25T05:01:41.524Z,97.62
2023-01-25T05:02:41.585Z,97.94
2023-01-25T05:03:41.513Z,97.94
2023-01-25T05:04:41.484Z,97.94
2023-01-25T05:05:41.468Z,97.00
2023-01-25T05:06:41.465Z,97.41
2023-01-25T05:07:42.175Z,96.68
2023-01-25T05:08:41.453Z,96.58
2023-01-25T05:09:41.427Z,97.31
2023-01-25T05:10:41.417Z,97.31
2023-01-25T05:11:41.419Z,96.47
2023-01-25T05:12:42.180Z,97.00
2023-01-25T05:13:41.383Z,96.89
2023-01-25T05:14:41.370Z,97.20
2023-01-25T05:15:41.400Z,97.00
2023-01-25T05:16:41.440Z,97.20
2023-01-25T05:17:41.364Z,97.00
2023-01-25T05:18:48.403Z,97.00
2023-01-25T05:19:43.178Z,96.89
2023-01-25T05:20:41.315Z,97.31
2023-01-25T05:21:43.710Z,97.31
2023-01-25T05:22:41.290Z,97.20
2023-01-25T05:23:42.197Z,97.00
2023-01-25T05:24:44.171Z,96.89
2023-01-25T05:25:41.258Z,97.10
2023-01-25T05:26:41.266Z,97.62
2023-01-25T05:27:48.179Z,97.52
2023-01-25T05:28:41.228Z,97.41
2023-01-25T05:29:42.189Z,97.99
2023-01-25T05:30:41.263Z,97.99
2023-01-25T05:31:41.287Z,97.68
2023-01-25T05:32:42.171Z,97.05
2023-01-25T05:33:41.181Z,97.31
2023-01-25T05:34:41.172Z,97.20
2023-01-25T05:35:41.175Z,97.10
2023-01-25T05:36:41.143Z,96.89
2023-01-25T05:37:41.679Z,96.78
2023-01-25T05:38:41.128Z,96.89
2023-01-25T05:39:41.112Z,97.10
2023-01-25T05:40:41.681Z,97.31
2023-01-25T05:41:41.138Z,97.31
2023-01-25T05:42:41.111Z,97.00
2023-01-25T05:43:41.070Z,97.52
2023-01-25T05:44:41.050Z,98.14
2023-01-25T05:45:41.178Z,98.14
2023-01-25T05:46:41.045Z,97.62
2023-01-25T05:47:41.048Z,97.72
2023-01-25T05:48:41.023Z,98.04
2023-01-25T05:49:41.019Z,98.08
2023-01-25T05:50:41.013Z,97.31
2023-01-25T05:51:41.007Z,97.10
2023-01-25T05:52:40.974Z,97.10
2023-01-25T05:53:40.999Z,97.20
2023-01-25T05:54:40.972Z,97.14
2023-01-25T05:55:40.951Z,97.67
2023-01-25T05:56:40.969Z,98.39
2023-01-25T05:57:40.920Z,97.88
2023-01-25T05:58:40.938Z,98.19
2023-01-25T05:59:40.899Z,98.19
2023-01-25T06:00:40.914Z,98.25
2023-01-25T06:01:40.885Z,98.29
2023-01-25T06:02:40.964Z,97.88
2023-01-25T06:03:40.913Z,97.67
2023-01-25T06:04:40.881Z,97.25
2023-01-25T06:05:40.839Z,98.08
2023-01-25T06:06:40.832Z,98.50
2023-01-25T06:07:40.817Z,98.08
2023-01-25T06:08:40.802Z,98.08
2023-01-25T06:09:40.815Z,98.13
2023-01-25T06:10:40.801Z,98.39
2023-01-25T06:11:40.779Z,97.98
2023-01-25T06:12:41.789Z,99.02
2023-01-25T06:13:40.752Z,98.50
2023-01-25T06:14:40.756Z,98.08
2023-01-25T06:15:40.774Z,98.08
2023-01-25T06:16:40.716Z,98.29
2023-01-25T06:17:40.727Z,98.25
2023-01-25T06:18:40.691Z,98.39
2023-01-25T06:19:40.723Z,98.14
2023-01-25T06:20:40.691Z,98.14
2023-01-25T06:21:40.683Z,98.14
2023-01-25T06:22:40.655Z,97.94
2023-01-25T06:23:40.652Z,97.94
2023-01-25T06:24:40.633Z,97.10
2023-01-25T06:25:40.660Z,97.14
2023-01-25T06:26:40.633Z,97.41
2023-01-25T06:27:40.622Z,97.31
2023-01-25T06:28:40.591Z,97.14
2023-01-25T06:29:40.583Z,97.67
2023-01-25T06:30:41.597Z,98.08
2023-01-25T06:31:40.788Z,98.08
2023-01-25T06:32:40.554Z,97.98
2023-01-25T06:33:40.567Z,98.29
2023-01-25T06:34:40.538Z,97.98
2023-01-25T06:35:40.558Z,98.39
2023-01-25T06:36:40.500Z,98.55
2023-01-25T06:37:40.521Z,98.34
2023-01-25T06:38:40.483Z,97.81
2023-01-25T06:39:40.494Z,97.81
2023-01-25T06:40:40.473Z,98.02
2023-01-25T06:41:40.465Z,98.34
2023-01-25T06:42:40.449Z,98.13
2023-01-25T06:43:40.480Z,97.81
2023-01-25T06:44:40.436Z,98.07
2023-01-25T06:45:40.446Z,98.44
2023-01-25T06:46:40.474Z,98.24
2023-01-25T06:47:40.403Z,98.44
2023-01-25T06:48:40.401Z,98.44
2023-01-25T06:49:40.409Z,98.65
2023-01-25T06:50:40.383Z,98.44
2023-01-25T06:51:40.371Z,98.75
2023-01-25T06:52:40.342Z,98.65
2023-01-25T06:53:40.389Z,98.75
2023-01-25T06:54:40.343Z,98.75
2023-01-25T06:55:40.318Z,98.65
2023-01-25T06:56:40.320Z,98.75
2023-01-25T06:57:40.340Z,98.24
2023-01-25T06:58:40.280Z,98.13
2023-01-25T06:59:40.289Z,98.75
2023-01-25T07:00:40.279Z,98.75
2023-01-25T07:01:40.347Z,98.34
2023-01-25T07:02:40.335Z,98.65
2023-01-25T07:03:40.256Z,98.55
2023-01-25T07:04:40.244Z,98.02
2023-01-25T07:05:40.213Z,98.34
2023-01-25T07:06:40.205Z,98.02
2023-01-25T07:07:40.213Z,98.02
2023-01-25T07:08:40.176Z,98.13
2023-01-25T07:09:40.200Z,98.08
2023-01-25T07:10:40.169Z,98.19
2023-01-25T07:11:40.165Z,98.92
2023-01-25T07:12:40.127Z,98.50
2023-01-25T07:13:40.128Z,98.39
2023-01-25T07:14:40.118Z,98.71
2023-01-25T07:15:40.118Z,98.29
2023-01-25T07:16:40.083Z,98.50
2023-01-25T07:17:40.095Z,98.29
2023-01-25T07:18:40.067Z,98.61
2023-01-25T07:19:40.083Z,98.29
2023-01-25T07:20:40.066Z,97.98
2023-01-25T07:21:40.054Z,97.98
2023-01-25T07:22:40.031Z,97.77
2023-01-25T07:23:40.056Z,97.88
2023-01-25T07:24:40.067Z,98.29
2023-01-25T07:25:39.998Z,98.08
2023-01-25T07:26:39.983Z,98.25
2023-01-25T07:27:40.006Z,97.88
2023-01-25T07:28:39.963Z,98.19
2023-01-25T07:29:39.967Z,97.98
2023-01-25T07:30:39.959Z,97.88
2023-01-25T07:31:39.986Z,98.19
2023-01-25T07:32:39.936Z,98.35
2023-01-25T07:33:39.937Z,97.88
2023-01-25T07:34:39.900Z,98.19
2023-01-25T07:35:39.923Z,98.08
2023-01-25T07:36:39.921Z,97.94
2023-01-25T07:37:39.878Z,98.39
2023-01-25T07:38:39.859Z,97.83
2023-01-25T07:39:39.867Z,98.04
2023-01-25T07:40:39.830Z,98.19
2023-01-25T07:41:39.874Z,98.19
2023-01-25T07:42:39.842Z,98.19
2023-01-25T07:43:39.897Z,98.19
2023-01-25T07:44:39.811Z,98.14
2023-01-25T07:45:39.789Z,98.35
2023-01-25T07:46:39.817Z,97.72
2023-01-25T07:47:39.764Z,97.83
2023-01-25T07:48:39.751Z,97.77
2023-01-25T07:49:39.791Z,98.19
2023-01-25T07:50:39.734Z,97.35
2023-01-25T07:51:40.797Z,97.25
2023-01-25T07:52:39.718Z,97.45
2023-01-25T07:53:39.709Z,97.56
2023-01-25T07:54:39.696Z,98.19
2023-01-25T07:55:39.721Z,98.13
2023-01-25T07:56:39.663Z,98.13
2023-01-25T07:57:39.662Z,98.44
2023-01-25T07:58:39.652Z,98.44
2023-01-25T07:59:39.654Z,98.02
2023-01-25T08:00:39.648Z,98.02
2023-01-25T08:01:39.631Z,97.29
2023-01-25T08:02:39.602Z,96.98
2023-01-25T08:03:39.633Z,97.19
2023-01-25T08:04:39.591Z,97.34
2023-01-25T08:05:40.322Z,98.49
2023-01-25T08:06:39.716Z,97.81
2023-01-25T08:07:39.577Z,98.34
2023-01-25T08:08:39.539Z,99.07
2023-01-25T08:09:39.541Z,98.55
2023-01-25T08:10:39.572Z,97.61
2023-01-25T08:11:39.530Z,96.98
2023-01-25T08:12:39.511Z,97.44
2023-01-25T08:13:39.490Z,97.13
2023-01-25T08:14:39.535Z,97.55
2023-01-25T08:15:39.480Z,98.18
2023-01-25T08:16:39.513Z,97.86
2023-01-25T08:17:39.454Z,97.75
2023-01-25T08:18:39.445Z,98.59
2023-01-25T08:19:39.457Z,98.49
2023-01-25T08:20:39.435Z,97.92
2023-01-25T08:21:39.413Z,97.08
2023-01-25T08:22:39.453Z,97.44
2023-01-25T08:23:40.462Z,97.08
2023-01-25T08:24:39.507Z,97.81
2023-01-25T08:25:39.360Z,98.28
2023-01-25T08:26:39.370Z,97.96
2023-01-25T08:27:39.355Z,97.92
2023-01-25T08:28:39.359Z,98.13
2023-01-25T08:29:39.341Z,98.55
2023-01-25T08:30:45.781Z,98.75
2023-01-25T08:31:40.340Z,98.75
2023-01-25T08:32:39.287Z,98.02
2023-01-25T08:33:39.278Z,98.65
2023-01-25T08:34:39.279Z,98.34
2023-01-25T08:35:39.260Z,98.34
2023-01-25T08:36:39.260Z,98.65
2023-01-25T08:37:39.261Z,98.65
2023-01-25T08:38:39.233Z,98.24
2023-01-25T08:39:39.221Z,98.19
2023-01-25T08:40:39.201Z,98.39
2023-01-25T08:41:39.206Z,98.50
2023-01-25T08:42:39.190Z,98.39
2023-01-25T08:43:39.256Z,98.19
2023-01-25T08:44:39.175Z,97.77
2023-01-25T08:45:45.663Z,97.67
2023-01-25T08:46:41.660Z,97.35
2023-01-25T08:47:39.130Z,96.94
2023-01-25T08:48:39.129Z,96.41
2023-01-25T08:49:39.142Z,96.62
2023-01-25T08:50:39.142Z,96.72
2023-01-25T08:51:39.097Z,96.94
2023-01-25T08:52:39.090Z,97.35
2023-01-25T08:53:39.077Z,96.62
2023-01-25T08:54:39.077Z,97.14
2023-01-25T08:55:39.188Z,97.14
2023-01-25T08:56:41.681Z,97.14
2023-01-25T08:57:39.044Z,97.25
2023-01-25T08:58:41.707Z,96.94
2023-01-25T08:59:42.681Z,97.14
2023-01-25T09:00:39.016Z,97.08
2023-01-25T09:01:39.005Z,97.56
2023-01-25T09:02:39.013Z,97.67
2023-01-25T09:03:39.028Z,97.71
2023-01-25T09:04:38.955Z,97.19
2023-01-25T09:05:38.952Z,98.24
2023-01-25T09:06:38.978Z,98.02
2023-01-25T09:07:38.925Z,98.50
2023-01-25T09:08:38.926Z,98.19
2023-01-25T09:09:38.907Z,98.24
2023-01-25T09:10:38.908Z,97.98
2023-01-25T09:11:59.937Z,98.19
2023-01-25T09:12:38.898Z,98.19
2023-01-25T09:13:38.863Z,98.24
2023-01-25T09:14:38.874Z,98.19
2023-01-25T09:15:39.654Z,98.24
2023-01-25T09:16:39.667Z,97.98
2023-01-25T09:17:38.857Z,97.71
2023-01-25T09:18:38.824Z,97.19
2023-01-25T09:19:38.805Z,97.39
2023-01-25T09:20:38.788Z,97.35
2023-01-25T09:21:38.790Z,97.14
2023-01-25T09:22:38.768Z,97.08
2023-01-25T09:23:50.667Z,97.29
2023-01-25T09:24:39.803Z,97.29
2023-01-25T09:25:39.679Z,97.19
2023-01-25T09:26:38.721Z,97.39
2023-01-25T09:27:38.718Z,97.81
2023-01-25T09:28:38.733Z,97.92
2023-01-25T09:29:39.648Z,97.98
2023-01-25T09:30:47.889Z,97.88
2023-01-25T09:31:39.867Z,97.77
2023-01-25T09:32:38.771Z,97.88
2023-01-25T09:33:38.648Z,97.77
2023-01-25T09:34:38.677Z,98.08
2023-01-25T09:35:38.657Z,98.19
2023-01-25T09:36:41.150Z,98.19
2023-01-25T09:37:38.634Z,98.19
2023-01-25T09:38:38.595Z,97.67
2023-01-25T09:39:39.157Z,97.98
2023-01-25T09:40:38.599Z,97.14
2023-01-25T09:41:38.567Z,98.19
2023-01-25T09:42:38.579Z,97.98
2023-01-25T09:43:38.573Z,98.14
2023-01-25T09:44:38.548Z,98.19
2023-01-25T09:45:38.533Z,97.67
2023-01-25T09:46:38.688Z,98.08
2023-01-25T09:47:38.513Z,98.39
2023-01-25T09:48:38.498Z,97.98
2023-01-25T09:49:38.689Z,97.88
2023-01-25T09:50:38.507Z,98.19
2023-01-25T09:51:39.164Z,98.29
2023-01-25T09:52:39.479Z,97.77
2023-01-25T09:53:38.455Z,98.29
2023-01-25T09:54:46.653Z,97.77
2023-01-25T09:55:39.444Z,97.77
2023-01-25T09:56:38.405Z,97.98
2023-01-25T09:57:41.160Z,98.08
2023-01-25T09:58:45.154Z,98.29
2023-01-25T09:59:38.382Z,98.19
2023-01-25T10:00:38.387Z,98.08
2023-01-25T10:01:39.440Z,98.19
2023-01-25T10:02:38.571Z,97.98
2023-01-25T10:03:38.339Z,98.19
2023-01-25T10:04:42.167Z,97.67
2023-01-25T10:05:45.157Z,97.19
2023-01-25T10:06:39.468Z,97.67
2023-01-25T10:07:38.680Z,97.29
2023-01-25T10:08:41.152Z,96.98
2023-01-25T10:09:39.164Z,97.50
2023-01-25T10:10:38.286Z,96.98
2023-01-25T10:11:38.259Z,96.88
2023-01-25T10:12:38.259Z,97.29
2023-01-25T10:13:38.252Z,96.72
2023-01-25T10:14:39.145Z,97.08
2023-01-25T10:15:39.238Z,97.71
2023-01-25T10:16:39.240Z,98.24
2023-01-25T10:17:38.199Z,98.24
2023-01-25T10:18:38.702Z,97.92
2023-01-25T10:19:38.166Z,98.34
2023-01-25T10:20:38.157Z,98.38
2023-01-25T10:21:38.166Z,98.07
2023-01-25T10:22:38.141Z,98.97
2023-01-25T10:23:38.121Z,98.75
2023-01-25T10:24:38.122Z,98.34
2023-01-25T10:25:38.105Z,98.86
2023-01-25T10:26:38.097Z,98.55
2023-01-25T10:27:38.200Z,98.44
2023-01-25T10:28:38.676Z,98.44
2023-01-25T10:29:38.058Z,98.39
2023-01-25T10:30:38.073Z,98.34
2023-01-25T10:31:38.131Z,98.71
2023-01-25T10:32:47.617Z,98.19
2023-01-25T10:33:40.248Z,97.56
2023-01-25T10:34:55.910Z,98.29
2023-01-25T10:35:42.750Z,98.71
2023-01-25T10:36:40.661Z,98.29
2023-01-25T10:37:37.990Z,98.19
2023-01-25T10:38:38.031Z,98.71
2023-01-25T10:39:37.955Z,98.35
2023-01-25T10:40:37.970Z,97.94
2023-01-25T10:41:37.942Z,97.94
2023-01-25T10:42:44.657Z,98.04
2023-01-25T10:43:38.178Z,98.14
2023-01-25T10:44:37.906Z,97.98
2023-01-25T10:45:37.890Z,97.83
2023-01-25T10:46:37.926Z,97.98
2023-01-25T10:47:37.870Z,98.19
2023-01-25T10:48:38.188Z,97.67
2023-01-25T10:49:37.853Z,97.72
2023-01-25T10:50:37.853Z,98.19
2023-01-25T10:51:37.857Z,97.45
2023-01-25T10:52:38.657Z,97.98
2023-01-25T10:53:37.807Z,97.45
2023-01-25T10:54:43.181Z,98.19
2023-01-25T10:55:38.656Z,98.19
2023-01-25T10:56:37.782Z,98.19
2023-01-25T10:57:38.651Z,97.04
2023-01-25T10:58:37.780Z,97.14
2023-01-25T10:59:37.747Z,97.04
2023-01-25T11:00:37.748Z,98.14
2023-01-25T11:01:37.770Z,97.94
2023-01-25T11:02:38.813Z,97.72
2023-01-25T11:03:37.729Z,98.04
2023-01-25T11:04:37.681Z,98.04
2023-01-25T11:05:37.680Z,98.04
2023-01-25T11:06:37.700Z,97.41
2023-01-25T11:07:38.661Z,98.14
2023-01-25T11:08:37.692Z,97.62
2023-01-25T11:09:40.180Z,98.35
2023-01-25T11:10:37.625Z,97.72
2023-01-25T11:11:39.361Z,97.56
2023-01-25T11:12:37.593Z,97.62
2023-01-25T11:13:37.635Z,98.25
2023-01-25T11:14:37.630Z,98.04
2023-01-25T11:15:37.627Z,97.04
2023-01-25T11:16:44.148Z,96.94
2023-01-25T11:17:38.617Z,97.04
2023-01-25T11:18:37.570Z,96.94
2023-01-25T11:19:37.622Z,96.78
2023-01-25T11:20:37.684Z,97.04
2023-01-25T11:21:40.204Z,96.83
2023-01-25T11:22:37.517Z,97.72
2023-01-25T11:23:52.173Z,98.14
2023-01-25T11:24:37.485Z,97.25
2023-01-25T11:25:37.473Z,97.56
2023-01-25T11:26:38.168Z,98.19
2023-01-25T11:27:37.528Z,97.72
2023-01-25T11:28:37.437Z,97.62
2023-01-25T11:29:37.691Z,97.62
2023-01-25T11:30:44.217Z,98.14
2023-01-25T11:31:37.554Z,98.14
2023-01-25T11:32:38.147Z,97.20
2023-01-25T11:33:37.395Z,97.14
2023-01-25T11:34:37.383Z,97.35
2023-01-25T11:35:37.411Z,97.56
2023-01-25T11:36:40.157Z,98.13
2023-01-25T11:37:37.358Z,97.77
2023-01-25T11:38:37.332Z,98.19
2023-01-25T11:39:37.349Z,98.29
2023-01-25T11:40:37.312Z,97.98
2023-01-25T11:41:38.146Z,97.88
2023-01-25T11:42:37.285Z,97.67
2023-01-25T11:43:38.143Z,97.56
2023-01-25T11:44:40.150Z,97.35
2023-01-25T11:45:37.291Z,96.83
2023-01-25T11:46:39.023Z,97.39
2023-01-25T11:47:37.250Z,97.29
2023-01-25T11:48:38.153Z,98.19
2023-01-25T11:49:37.206Z,97.71
2023-01-25T11:50:38.147Z,98.08
2023-01-25T11:51:37.257Z,98.19
2023-01-25T11:52:37.242Z,97.67
2023-01-25T11:53:39.203Z,98.13
2023-01-25T11:54:37.174Z,97.92
2023-01-25T11:55:37.146Z,98.34
2023-01-25T11:56:37.198Z,98.34
2023-01-25T11:57:37.121Z,98.24
2023-01-25T11:58:37.139Z,97.98
2023-01-25T11:59:37.096Z,98.19
2023-01-25T12:00:37.652Z,98.08
2023-01-25T12:01:37.092Z,98.08
2023-01-25T12:02:42.224Z,98.19
2023-01-25T12:03:37.156Z,98.39
2023-01-25T12:04:37.056Z,98.29
2023-01-25T12:05:37.059Z,98.24
2023-01-25T12:06:37.040Z,98.29
2023-01-25T12:07:37.028Z,98.61
2023-01-25T12:08:36.995Z,98.29
2023-01-25T12:09:37.018Z,97.98
2023-01-25T12:10:36.982Z,98.39
2023-01-25T12:11:36.979Z,97.67
2023-01-25T12:12:37.192Z,97.25
2023-01-25T12:13:36.951Z,96.83
2023-01-25T12:14:51.646Z,96.62
2023-01-25T12:15:36.943Z,97.04
2023-01-25T12:16:36.958Z,96.83
2023-01-25T12:17:36.933Z,97.00
2023-01-25T12:18:36.896Z,96.94
2023-01-25T12:19:36.893Z,97.25
2023-01-25T12:20:36.894Z,97.14
2023-01-25T12:21:37.640Z,97.04
2023-01-25T12:22:36.895Z,97.04
2023-01-25T12:23:36.856Z,96.89
2023-01-25T12:24:37.191Z,97.04
2023-01-25T12:25:37.192Z,97.00
2023-01-25T12:26:51.661Z,97.31
2023-01-25T12:27:43.650Z,96.58
2023-01-25T12:28:39.642Z,97.04
2023-01-25T12:29:36.777Z,96.58
2023-01-25T12:30:36.858Z,97.45
2023-01-25T12:31:36.867Z,96.94
2023-01-25T12:32:36.749Z,97.45
2023-01-25T12:33:36.736Z,97.31
2023-01-25T12:34:36.740Z,97.10
2023-01-25T12:35:37.640Z,97.31
2023-01-25T12:36:37.647Z,96.89
2023-01-25T12:37:37.165Z,97.41
2023-01-25T12:38:36.701Z,97.20
2023-01-25T12:39:36.686Z,97.14
2023-01-25T12:40:36.675Z,97.10
2023-01-25T12:41:36.687Z,97.25
2023-01-25T12:42:36.680Z,96.94
2023-01-25T12:43:36.633Z,97.35
2023-01-25T12:44:36.628Z,97.14
2023-01-25T12:45:36.621Z,97.35
2023-01-25T12:46:39.203Z,97.25
2023-01-25T12:47:37.145Z,97.10
2023-01-25T12:48:36.617Z,97.10
2023-01-25T12:49:39.155Z,96.94
2023-01-25T12:50:36.573Z,96.68
2023-01-25T12:51:36.553Z,96.83
2023-01-25T12:52:36.670Z,96.62